sensor_id;sensor_type;location;lat;lon;timestamp;P1;durP1;ratioP1;P2;durP2;ratioP2
20122;SDS011;10222;50.848;4.336;2023-06-01T00:03:27;6.60;;;3.53;;
20122;SDS011;10222;50.848;4.336;2023-06-01T00:05:55;6.77;;;3.50;;
20122;SDS011;10222;50.848;4.336;2023-06-01T00:08:27;7.47;;;3.97;;
20122;SDS011;10222;50.848;4.336;2023-06-01T00:15:52;8.73;;;3.83;;
20122;SDS011;10222;50.848;4.336;2023-06-01T00:18:19;7.30;;;4.00;;
20122;SDS011;10222;50.848;4.336;2023-06-01T00:20:45;6.67;;;3.90;;
20122;SDS011;10222;50.848;4.336;2023-06-01T00:23:14;6.80;;;3.67;;
20122;SDS011;10222;50.848;4.336;2023-06-01T00:25:42;8.03;;;4.20;;
20122;SDS011;10222;50.848;4.336;2023-06-01T00:28:11;9.47;;;4.70;;
20122;SDS011;10222;50.848;4.336;2023-06-01T00:30:39;8.07;;;3.77;;
20122;SDS011;10222;50.848;4.336;2023-06-01T00:33:07;5.80;;;3.70;;
20122;SDS011;10222;50.848;4.336;2023-06-01T00:35:36;6.77;;;4.30;;
20122;SDS011;10222;50.848;4.336;2023-06-01T00:38:04;7.70;;;4.20;;
20122;SDS011;10222;50.848;4.336;2023-06-01T00:40:33;7.67;;;4.17;;
20122;SDS011;10222;50.848;4.336;2023-06-01T00:43:02;6.27;;;3.37;;
20122;SDS011;10222;50.848;4.336;2023-06-01T00:45:29;7.23;;;4.27;;
20122;SDS011;10222;50.848;4.336;2023-06-01T00:47:59;9.60;;;4.30;;
20122;SDS011;10222;50.848;4.336;2023-06-01T00:50:31;6.37;;;3.57;;
20122;SDS011;10222;50.848;4.336;2023-06-01T00:52:58;7.13;;;4.53;;
20122;SDS011;10222;50.848;4.336;2023-06-01T00:55:26;6.03;;;3.63;;
20122;SDS011;10222;50.848;4.336;2023-06-01T00:57:54;9.50;;;4.57;;
20122;SDS011;10222;50.848;4.336;2023-06-01T01:00:21;6.73;;;3.77;;
20122;SDS011;10222;50.848;4.336;2023-06-01T01:02:48;8.03;;;4.13;;
20122;SDS011;10222;50.848;4.336;2023-06-01T01:05:15;8.80;;;4.23;;
20122;SDS011;10222;50.848;4.336;2023-06-01T01:21:01;8.77;;;4.20;;
20122;SDS011;10222;50.848;4.336;2023-06-01T01:26:42;7.33;;;4.07;;
20122;SDS011;10222;50.848;4.336;2023-06-01T01:31:26;6.87;;;4.53;;
20122;SDS011;10222;50.848;4.336;2023-06-01T01:33:59;8.73;;;4.03;;
20122;SDS011;10222;50.848;4.336;2023-06-01T01:36:29;8.20;;;4.53;;
20122;SDS011;10222;50.848;4.336;2023-06-01T01:38:58;7.97;;;4.73;;
20122;SDS011;10222;50.848;4.336;2023-06-01T01:41:29;8.47;;;4.60;;
20122;SDS011;10222;50.848;4.336;2023-06-01T01:43:57;7.87;;;4.40;;
20122;SDS011;10222;50.848;4.336;2023-06-01T01:46:29;7.53;;;4.87;;
20122;SDS011;10222;50.848;4.336;2023-06-01T01:54:15;8.87;;;5.00;;
20122;SDS011;10222;50.848;4.336;2023-06-01T01:56:45;8.63;;;5.17;;
20122;SDS011;10222;50.848;4.336;2023-06-01T01:59:14;9.57;;;5.30;;
20122;SDS011;10222;50.848;4.336;2023-06-01T02:06:40;8.43;;;4.93;;
20122;SDS011;10222;50.848;4.336;2023-06-01T02:09:07;10.53;;;5.53;;
20122;SDS011;10222;50.848;4.336;2023-06-01T02:11:36;9.70;;;5.47;;
20122;SDS011;10222;50.848;4.336;2023-06-01T02:14:02;6.77;;;4.43;;
20122;SDS011;10222;50.848;4.336;2023-06-01T02:16:34;8.60;;;4.87;;
20122;SDS011;10222;50.848;4.336;2023-06-01T02:19:01;7.70;;;4.40;;
20122;SDS011;10222;50.848;4.336;2023-06-01T02:21:31;10.87;;;5.10;;
20122;SDS011;10222;50.848;4.336;2023-06-01T02:23:59;9.10;;;5.03;;
20122;SDS011;10222;50.848;4.336;2023-06-01T02:26:32;8.83;;;5.13;;
20122;SDS011;10222;50.848;4.336;2023-06-01T02:29:01;14.17;;;5.60;;
20122;SDS011;10222;50.848;4.336;2023-06-01T02:31:29;9.80;;;5.07;;
20122;SDS011;10222;50.848;4.336;2023-06-01T02:33:57;12.50;;;4.97;;
20122;SDS011;10222;50.848;4.336;2023-06-01T02:36:26;8.57;;;5.60;;
20122;SDS011;10222;50.848;4.336;2023-06-01T02:38:54;8.07;;;4.70;;
20122;SDS011;10222;50.848;4.336;2023-06-01T02:41:22;8.97;;;5.50;;
20122;SDS011;10222;50.848;4.336;2023-06-01T02:43:51;9.07;;;4.77;;
20122;SDS011;10222;50.848;4.336;2023-06-01T02:46:19;9.17;;;5.23;;
20122;SDS011;10222;50.848;4.336;2023-06-01T02:48:46;10.13;;;5.97;;
20122;SDS011;10222;50.848;4.336;2023-06-01T02:51:13;10.53;;;6.23;;
20122;SDS011;10222;50.848;4.336;2023-06-01T02:53:41;13.50;;;6.30;;
20122;SDS011;10222;50.848;4.336;2023-06-01T02:56:08;11.20;;;6.17;;
20122;SDS011;10222;50.848;4.336;2023-06-01T02:58:36;12.20;;;5.73;;
20122;SDS011;10222;50.848;4.336;2023-06-01T03:01:02;11.40;;;5.83;;
20122;SDS011;10222;50.848;4.336;2023-06-01T03:03:29;13.83;;;6.57;;
20122;SDS011;10222;50.848;4.336;2023-06-01T03:05:59;12.53;;;6.10;;
20122;SDS011;10222;50.848;4.336;2023-06-01T03:08:26;10.07;;;5.57;;
20122;SDS011;10222;50.848;4.336;2023-06-01T03:10:53;9.57;;;5.90;;
20122;SDS011;10222;50.848;4.336;2023-06-01T03:13:20;9.20;;;5.20;;
20122;SDS011;10222;50.848;4.336;2023-06-01T03:18:17;11.93;;;6.20;;
20122;SDS011;10222;50.848;4.336;2023-06-01T03:23:14;11.20;;;6.03;;
20122;SDS011;10222;50.848;4.336;2023-06-01T03:25:42;10.77;;;5.90;;
20122;SDS011;10222;50.848;4.336;2023-06-01T03:28:07;12.47;;;6.53;;
20122;SDS011;10222;50.848;4.336;2023-06-01T03:30:34;12.77;;;6.00;;
20122;SDS011;10222;50.848;4.336;2023-06-01T03:33:02;13.03;;;6.97;;
20122;SDS011;10222;50.848;4.336;2023-06-01T03:35:28;10.73;;;6.17;;
20122;SDS011;10222;50.848;4.336;2023-06-01T03:37:54;14.83;;;7.20;;
20122;SDS011;10222;50.848;4.336;2023-06-01T03:40:20;11.53;;;6.43;;
20122;SDS011;10222;50.848;4.336;2023-06-01T03:42:47;15.03;;;6.40;;
20122;SDS011;10222;50.848;4.336;2023-06-01T03:45:15;11.43;;;6.07;;
20122;SDS011;10222;50.848;4.336;2023-06-01T03:47:43;13.10;;;6.10;;
20122;SDS011;10222;50.848;4.336;2023-06-01T03:50:09;10.00;;;6.03;;
20122;SDS011;10222;50.848;4.336;2023-06-01T03:52:39;12.80;;;5.93;;
20122;SDS011;10222;50.848;4.336;2023-06-01T03:55:05;12.00;;;6.40;;
20122;SDS011;10222;50.848;4.336;2023-06-01T03:57:36;13.33;;;6.60;;
20122;SDS011;10222;50.848;4.336;2023-06-01T04:05:20;17.20;;;7.50;;
20122;SDS011;10222;50.848;4.336;2023-06-01T04:07:46;15.93;;;7.00;;
20122;SDS011;10222;50.848;4.336;2023-06-01T04:10:13;9.90;;;6.33;;
20122;SDS011;10222;50.848;4.336;2023-06-01T04:15:09;14.30;;;7.57;;
20122;SDS011;10222;50.848;4.336;2023-06-01T04:17:38;16.90;;;8.17;;
20122;SDS011;10222;50.848;4.336;2023-06-01T04:22:34;15.67;;;7.33;;
20122;SDS011;10222;50.848;4.336;2023-06-01T04:25:01;18.17;;;8.03;;
20122;SDS011;10222;50.848;4.336;2023-06-01T04:27:28;19.20;;;7.77;;
20122;SDS011;10222;50.848;4.336;2023-06-01T04:30:00;13.63;;;7.43;;
20122;SDS011;10222;50.848;4.336;2023-06-01T04:32:27;13.37;;;7.37;;
20122;SDS011;10222;50.848;4.336;2023-06-01T04:34:59;13.23;;;7.47;;
20122;SDS011;10222;50.848;4.336;2023-06-01T04:37:26;18.43;;;8.17;;
20122;SDS011;10222;50.848;4.336;2023-06-01T04:39:53;14.67;;;7.83;;
20122;SDS011;10222;50.848;4.336;2023-06-01T04:42:22;14.20;;;7.47;;
20122;SDS011;10222;50.848;4.336;2023-06-01T04:44:50;16.13;;;7.37;;
20122;SDS011;10222;50.848;4.336;2023-06-01T04:47:19;13.77;;;7.27;;
20122;SDS011;10222;50.848;4.336;2023-06-01T04:49:47;13.57;;;6.90;;
20122;SDS011;10222;50.848;4.336;2023-06-01T04:52:17;16.63;;;7.63;;
20122;SDS011;10222;50.848;4.336;2023-06-01T04:54:49;17.20;;;7.80;;
20122;SDS011;10222;50.848;4.336;2023-06-01T04:59:45;14.00;;;7.37;;
20122;SDS011;10222;50.848;4.336;2023-06-01T05:02:17;12.87;;;7.50;;
20122;SDS011;10222;50.848;4.336;2023-06-01T05:04:46;15.53;;;7.27;;
20122;SDS011;10222;50.848;4.336;2023-06-01T05:09:42;15.03;;;8.27;;
20122;SDS011;10222;50.848;4.336;2023-06-01T05:12:10;14.17;;;7.50;;
20122;SDS011;10222;50.848;4.336;2023-06-01T05:14:38;15.50;;;8.20;;
20122;SDS011;10222;50.848;4.336;2023-06-01T05:17:04;14.40;;;8.40;;
20122;SDS011;10222;50.848;4.336;2023-06-01T05:19:36;16.10;;;8.70;;
20122;SDS011;10222;50.848;4.336;2023-06-01T05:22:03;16.80;;;8.40;;
20122;SDS011;10222;50.848;4.336;2023-06-01T05:24:29;16.03;;;8.43;;
20122;SDS011;10222;50.848;4.336;2023-06-01T05:26:55;19.90;;;9.13;;
20122;SDS011;10222;50.848;4.336;2023-06-01T05:29:22;15.57;;;9.23;;
20122;SDS011;10222;50.848;4.336;2023-06-01T05:31:49;20.07;;;9.93;;
20122;SDS011;10222;50.848;4.336;2023-06-01T05:34:17;18.10;;;8.43;;
20122;SDS011;10222;50.848;4.336;2023-06-01T05:36:43;18.80;;;9.33;;
20122;SDS011;10222;50.848;4.336;2023-06-01T05:39:10;18.10;;;9.53;;
20122;SDS011;10222;50.848;4.336;2023-06-01T05:41:38;16.03;;;8.97;;
20122;SDS011;10222;50.848;4.336;2023-06-01T05:44:04;18.70;;;9.63;;
20122;SDS011;10222;50.848;4.336;2023-06-01T05:46:31;22.20;;;10.23;;
20122;SDS011;10222;50.848;4.336;2023-06-01T05:48:58;17.77;;;9.40;;
20122;SDS011;10222;50.848;4.336;2023-06-01T05:51:26;20.00;;;9.93;;
20122;SDS011;10222;50.848;4.336;2023-06-01T05:53:53;21.30;;;9.73;;
20122;SDS011;10222;50.848;4.336;2023-06-01T05:56:22;22.73;;;10.60;;
20122;SDS011;10222;50.848;4.336;2023-06-01T05:58:49;16.83;;;9.63;;
20122;SDS011;10222;50.848;4.336;2023-06-01T06:03:48;19.60;;;9.73;;
20122;SDS011;10222;50.848;4.336;2023-06-01T06:08:48;22.07;;;9.73;;
20122;SDS011;10222;50.848;4.336;2023-06-01T06:13:47;23.63;;;10.43;;
20122;SDS011;10222;50.848;4.336;2023-06-01T06:16:16;20.93;;;10.87;;
20122;SDS011;10222;50.848;4.336;2023-06-01T06:18:44;17.03;;;9.80;;
20122;SDS011;10222;50.848;4.336;2023-06-01T06:21:10;18.47;;;10.37;;
20122;SDS011;10222;50.848;4.336;2023-06-01T06:23:39;20.53;;;9.83;;
20122;SDS011;10222;50.848;4.336;2023-06-01T06:28:35;20.53;;;10.57;;
20122;SDS011;10222;50.848;4.336;2023-06-01T06:31:01;20.90;;;9.47;;
20122;SDS011;10222;50.848;4.336;2023-06-01T06:33:31;18.40;;;9.73;;
20122;SDS011;10222;50.848;4.336;2023-06-01T06:35:58;19.93;;;10.87;;
20122;SDS011;10222;50.848;4.336;2023-06-01T06:38:24;21.20;;;11.40;;
20122;SDS011;10222;50.848;4.336;2023-06-01T06:40:51;19.20;;;10.73;;
20122;SDS011;10222;50.848;4.336;2023-06-01T06:43:19;19.00;;;10.73;;
20122;SDS011;10222;50.848;4.336;2023-06-01T06:45:48;19.60;;;10.83;;
20122;SDS011;10222;50.848;4.336;2023-06-01T06:50:45;18.30;;;10.43;;
20122;SDS011;10222;50.848;4.336;2023-06-01T06:55:44;20.23;;;9.80;;
20122;SDS011;10222;50.848;4.336;2023-06-01T06:58:10;16.43;;;9.33;;
20122;SDS011;10222;50.848;4.336;2023-06-01T07:00:37;16.90;;;9.60;;
20122;SDS011;10222;50.848;4.336;2023-06-01T07:03:04;20.67;;;10.70;;
20122;SDS011;10222;50.848;4.336;2023-06-01T07:05:32;22.43;;;10.07;;
20122;SDS011;10222;50.848;4.336;2023-06-01T07:07:59;19.70;;;10.30;;
20122;SDS011;10222;50.848;4.336;2023-06-01T07:10:29;19.43;;;9.63;;
20122;SDS011;10222;50.848;4.336;2023-06-01T07:12:58;16.73;;;9.27;;
20122;SDS011;10222;50.848;4.336;2023-06-01T07:15:27;16.27;;;8.93;;
20122;SDS011;10222;50.848;4.336;2023-06-01T07:17:54;18.10;;;9.43;;
20122;SDS011;10222;50.848;4.336;2023-06-01T07:20:20;16.83;;;9.60;;
20122;SDS011;10222;50.848;4.336;2023-06-01T07:22:48;16.57;;;8.47;;
20122;SDS011;10222;50.848;4.336;2023-06-01T07:25:15;15.03;;;8.73;;
20122;SDS011;10222;50.848;4.336;2023-06-01T07:27:41;15.53;;;8.47;;
20122;SDS011;10222;50.848;4.336;2023-06-01T07:30:12;16.60;;;8.50;;
20122;SDS011;10222;50.848;4.336;2023-06-01T07:32:39;13.30;;;8.50;;
20122;SDS011;10222;50.848;4.336;2023-06-01T07:35:05;18.33;;;9.50;;
20122;SDS011;10222;50.848;4.336;2023-06-01T07:37:32;16.50;;;8.83;;
20122;SDS011;10222;50.848;4.336;2023-06-01T07:40:01;15.90;;;8.70;;
20122;SDS011;10222;50.848;4.336;2023-06-01T07:42:31;18.63;;;9.40;;
20122;SDS011;10222;50.848;4.336;2023-06-01T07:44:58;14.50;;;9.37;;
20122;SDS011;10222;50.848;4.336;2023-06-01T07:47:25;16.80;;;8.53;;
20122;SDS011;10222;50.848;4.336;2023-06-01T07:49:55;18.27;;;9.73;;
20122;SDS011;10222;50.848;4.336;2023-06-01T07:54:50;16.97;;;7.77;;
20122;SDS011;10222;50.848;4.336;2023-06-01T07:59:47;15.83;;;8.23;;
20122;SDS011;10222;50.848;4.336;2023-06-01T08:04:43;15.17;;;8.57;;
20122;SDS011;10222;50.848;4.336;2023-06-01T08:07:09;14.73;;;8.77;;
20122;SDS011;10222;50.848;4.336;2023-06-01T08:09:39;16.97;;;8.80;;
20122;SDS011;10222;50.848;4.336;2023-06-01T08:12:08;13.47;;;8.10;;
20122;SDS011;10222;50.848;4.336;2023-06-01T08:14:38;18.00;;;8.37;;
20122;SDS011;10222;50.848;4.336;2023-06-01T08:17:06;13.17;;;8.47;;
20122;SDS011;10222;50.848;4.336;2023-06-01T08:19:32;16.17;;;8.10;;
20122;SDS011;10222;50.848;4.336;2023-06-01T08:22:00;17.77;;;8.87;;
20122;SDS011;10222;50.848;4.336;2023-06-01T08:24:32;16.77;;;9.07;;
20122;SDS011;10222;50.848;4.336;2023-06-01T08:26:59;22.77;;;10.03;;
20122;SDS011;10222;50.848;4.336;2023-06-01T08:29:26;15.93;;;9.13;;
20122;SDS011;10222;50.848;4.336;2023-06-01T08:34:26;17.57;;;8.67;;
20122;SDS011;10222;50.848;4.336;2023-06-01T08:36:55;14.63;;;8.30;;
20122;SDS011;10222;50.848;4.336;2023-06-01T08:39:24;14.37;;;7.80;;
20122;SDS011;10222;50.848;4.336;2023-06-01T08:46:52;19.37;;;8.63;;
20122;SDS011;10222;50.848;4.336;2023-06-01T08:49:21;15.90;;;8.10;;
20122;SDS011;10222;50.848;4.336;2023-06-01T08:51:53;15.67;;;7.77;;
20122;SDS011;10222;50.848;4.336;2023-06-01T08:54:24;14.37;;;7.97;;
20122;SDS011;10222;50.848;4.336;2023-06-01T08:56:53;16.03;;;7.83;;
20122;SDS011;10222;50.848;4.336;2023-06-01T08:59:22;16.60;;;7.83;;
20122;SDS011;10222;50.848;4.336;2023-06-01T09:01:49;16.30;;;7.73;;
20122;SDS011;10222;50.848;4.336;2023-06-01T09:04:16;15.17;;;7.70;;
20122;SDS011;10222;50.848;4.336;2023-06-01T09:06:48;14.83;;;7.57;;
20122;SDS011;10222;50.848;4.336;2023-06-01T09:09:17;22.83;;;8.60;;
20122;SDS011;10222;50.848;4.336;2023-06-01T09:11:44;14.43;;;7.93;;
20122;SDS011;10222;50.848;4.336;2023-06-01T09:14:21;17.30;;;8.50;;
20122;SDS011;10222;50.848;4.336;2023-06-01T09:16:49;14.80;;;7.37;;
20122;SDS011;10222;50.848;4.336;2023-06-01T09:21:59;15.53;;;7.93;;
20122;SDS011;10222;50.848;4.336;2023-06-01T09:24:28;19.70;;;8.40;;
20122;SDS011;10222;50.848;4.336;2023-06-01T09:26:58;15.47;;;7.57;;
20122;SDS011;10222;50.848;4.336;2023-06-01T09:29:29;14.73;;;8.13;;
20122;SDS011;10222;50.848;4.336;2023-06-01T09:31:56;17.47;;;8.60;;
20122;SDS011;10222;50.848;4.336;2023-06-01T09:34:23;11.77;;;7.30;;
20122;SDS011;10222;50.848;4.336;2023-06-01T09:36:52;15.90;;;7.90;;
20122;SDS011;10222;50.848;4.336;2023-06-01T09:39:25;17.57;;;7.00;;
20122;SDS011;10222;50.848;4.336;2023-06-01T09:44:30;14.80;;;8.40;;
20122;SDS011;10222;50.848;4.336;2023-06-01T09:49:25;14.43;;;7.17;;
20122;SDS011;10222;50.848;4.336;2023-06-01T09:52:13;13.60;;;7.43;;
20122;SDS011;10222;50.848;4.336;2023-06-01T09:54:47;11.13;;;6.70;;
20122;SDS011;10222;50.848;4.336;2023-06-01T09:57:24;13.20;;;7.10;;
20122;SDS011;10222;50.848;4.336;2023-06-01T09:59:53;11.87;;;6.70;;
20122;SDS011;10222;50.848;4.336;2023-06-01T10:02:21;12.53;;;6.70;;
20122;SDS011;10222;50.848;4.336;2023-06-01T10:04:48;11.77;;;6.67;;
20122;SDS011;10222;50.848;4.336;2023-06-01T10:07:16;11.87;;;5.70;;
20122;SDS011;10222;50.848;4.336;2023-06-01T10:09:43;13.23;;;6.47;;
20122;SDS011;10222;50.848;4.336;2023-06-01T10:12:11;9.80;;;6.50;;
20122;SDS011;10222;50.848;4.336;2023-06-01T10:14:39;12.77;;;6.80;;
20122;SDS011;10222;50.848;4.336;2023-06-01T10:17:12;10.73;;;6.03;;
20122;SDS011;10222;50.848;4.336;2023-06-01T10:19:43;13.03;;;6.70;;
20122;SDS011;10222;50.848;4.336;2023-06-01T10:22:11;13.50;;;6.93;;
20122;SDS011;10222;50.848;4.336;2023-06-01T10:24:40;11.27;;;6.00;;
20122;SDS011;10222;50.848;4.336;2023-06-01T10:29:49;11.07;;;5.73;;
20122;SDS011;10222;50.848;4.336;2023-06-01T10:35:06;12.70;;;6.57;;
20122;SDS011;10222;50.848;4.336;2023-06-01T10:37:38;10.40;;;6.17;;
20122;SDS011;10222;50.848;4.336;2023-06-01T10:40:20;12.13;;;6.47;;
20122;SDS011;10222;50.848;4.336;2023-06-01T10:42:47;9.47;;;6.27;;
20122;SDS011;10222;50.848;4.336;2023-06-01T10:48:09;12.63;;;6.43;;
20122;SDS011;10222;50.848;4.336;2023-06-01T10:50:40;15.33;;;6.63;;
20122;SDS011;10222;50.848;4.336;2023-06-01T10:58:41;9.53;;;5.50;;
20122;SDS011;10222;50.848;4.336;2023-06-01T11:01:10;12.70;;;6.87;;
20122;SDS011;10222;50.848;4.336;2023-06-01T11:06:33;9.80;;;5.80;;
20122;SDS011;10222;50.848;4.336;2023-06-01T11:09:02;12.13;;;6.47;;
20122;SDS011;10222;50.848;4.336;2023-06-01T11:14:20;11.47;;;6.80;;
20122;SDS011;10222;50.848;4.336;2023-06-01T11:16:50;11.10;;;6.97;;
20122;SDS011;10222;50.848;4.336;2023-06-01T11:19:19;12.13;;;6.63;;
20122;SDS011;10222;50.848;4.336;2023-06-01T11:24:16;13.40;;;6.60;;
20122;SDS011;10222;50.848;4.336;2023-06-01T11:26:43;14.43;;;7.07;;
20122;SDS011;10222;50.848;4.336;2023-06-01T11:29:13;15.40;;;6.43;;
20122;SDS011;10222;50.848;4.336;2023-06-01T11:31:42;13.27;;;6.67;;
20122;SDS011;10222;50.848;4.336;2023-06-01T11:34:09;11.40;;;6.70;;
20122;SDS011;10222;50.848;4.336;2023-06-01T11:36:37;11.43;;;6.33;;
20122;SDS011;10222;50.848;4.336;2023-06-01T11:39:04;12.27;;;6.37;;
20122;SDS011;10222;50.848;4.336;2023-06-01T11:41:33;12.93;;;7.05;;
20122;SDS011;10222;50.848;4.336;2023-06-01T11:44:01;11.67;;;5.70;;
20122;SDS011;10222;50.848;4.336;2023-06-01T11:46:27;12.00;;;6.30;;
20122;SDS011;10222;50.848;4.336;2023-06-01T11:49:03;12.00;;;6.80;;
20122;SDS011;10222;50.848;4.336;2023-06-01T11:51:36;14.50;;;6.70;;
20122;SDS011;10222;50.848;4.336;2023-06-01T11:54:05;10.07;;;6.03;;
20122;SDS011;10222;50.848;4.336;2023-06-01T11:56:32;11.63;;;5.93;;
20122;SDS011;10222;50.848;4.336;2023-06-01T11:59:00;12.87;;;6.17;;
20122;SDS011;10222;50.848;4.336;2023-06-01T12:01:28;12.67;;;6.53;;
20122;SDS011;10222;50.848;4.336;2023-06-01T12:03:54;10.77;;;5.87;;
20122;SDS011;10222;50.848;4.336;2023-06-01T12:06:23;10.93;;;6.45;;
20122;SDS011;10222;50.848;4.336;2023-06-01T12:08:54;12.53;;;6.93;;
20122;SDS011;10222;50.848;4.336;2023-06-01T12:11:22;13.80;;;6.85;;
20122;SDS011;10222;50.848;4.336;2023-06-01T12:13:55;13.38;;;6.53;;
20122;SDS011;10222;50.848;4.336;2023-06-01T12:16:22;13.52;;;7.15;;
20122;SDS011;10222;50.848;4.336;2023-06-01T12:18:50;13.18;;;6.85;;
20122;SDS011;10222;50.848;4.336;2023-06-01T12:21:17;11.63;;;6.00;;
20122;SDS011;10222;50.848;4.336;2023-06-01T12:23:48;10.63;;;5.40;;
20122;SDS011;10222;50.848;4.336;2023-06-01T12:26:17;11.25;;;6.13;;
20122;SDS011;10222;50.848;4.336;2023-06-01T12:29:01;10.75;;;5.55;;
20122;SDS011;10222;50.848;4.336;2023-06-01T12:31:28;9.23;;;5.10;;
20122;SDS011;10222;50.848;4.336;2023-06-01T12:33:54;8.80;;;5.15;;
20122;SDS011;10222;50.848;4.336;2023-06-01T12:36:33;10.18;;;5.97;;
20122;SDS011;10222;50.848;4.336;2023-06-01T12:39:00;10.52;;;5.93;;
20122;SDS011;10222;50.848;4.336;2023-06-01T12:41:28;13.60;;;6.20;;
20122;SDS011;10222;50.848;4.336;2023-06-01T12:43:55;11.32;;;6.03;;
20122;SDS011;10222;50.848;4.336;2023-06-01T12:46:24;12.48;;;6.28;;
20122;SDS011;10222;50.848;4.336;2023-06-01T12:48:52;10.70;;;6.22;;
20122;SDS011;10222;50.848;4.336;2023-06-01T12:51:20;10.35;;;5.60;;
20122;SDS011;10222;50.848;4.336;2023-06-01T12:53:46;12.40;;;5.75;;
20122;SDS011;10222;50.848;4.336;2023-06-01T12:56:12;10.02;;;5.55;;
20122;SDS011;10222;50.848;4.336;2023-06-01T12:58:39;12.70;;;5.20;;
20122;SDS011;10222;50.848;4.336;2023-06-01T13:01:05;11.00;;;6.57;;
20122;SDS011;10222;50.848;4.336;2023-06-01T13:03:31;11.35;;;5.93;;
20122;SDS011;10222;50.848;4.336;2023-06-01T13:05:58;10.00;;;5.50;;
20122;SDS011;10222;50.848;4.336;2023-06-01T13:08:25;11.55;;;5.63;;
20122;SDS011;10222;50.848;4.336;2023-06-01T13:10:51;12.02;;;5.88;;
20122;SDS011;10222;50.848;4.336;2023-06-01T13:13:20;10.10;;;5.30;;
20122;SDS011;10222;50.848;4.336;2023-06-01T13:15:49;13.75;;;5.82;;
20122;SDS011;10222;50.848;4.336;2023-06-01T13:18:15;7.65;;;4.80;;
20122;SDS011;10222;50.848;4.336;2023-06-01T13:20:42;11.15;;;5.47;;
20122;SDS011;10222;50.848;4.336;2023-06-01T13:23:08;9.77;;;4.95;;
20122;SDS011;10222;50.848;4.336;2023-06-01T13:25:34;10.95;;;5.32;;
20122;SDS011;10222;50.848;4.336;2023-06-01T13:28:01;7.47;;;4.45;;
20122;SDS011;10222;50.848;4.336;2023-06-01T13:30:28;9.45;;;5.05;;
20122;SDS011;10222;50.848;4.336;2023-06-01T13:32:55;8.95;;;4.35;;
20122;SDS011;10222;50.848;4.336;2023-06-01T13:35:21;10.50;;;4.68;;
20122;SDS011;10222;50.848;4.336;2023-06-01T13:37:47;10.27;;;5.45;;
20122;SDS011;10222;50.848;4.336;2023-06-01T13:40:14;8.68;;;4.82;;
20122;SDS011;10222;50.848;4.336;2023-06-01T13:42:44;7.53;;;4.22;;
20122;SDS011;10222;50.848;4.336;2023-06-01T13:45:10;10.40;;;5.13;;
20122;SDS011;10222;50.848;4.336;2023-06-01T13:47:37;6.75;;;4.00;;
20122;SDS011;10222;50.848;4.336;2023-06-01T13:50:03;11.10;;;4.35;;
20122;SDS011;10222;50.848;4.336;2023-06-01T13:52:29;9.27;;;4.05;;
20122;SDS011;10222;50.848;4.336;2023-06-01T13:54:55;8.18;;;4.95;;
20122;SDS011;10222;50.848;4.336;2023-06-01T13:57:23;7.78;;;4.45;;
20122;SDS011;10222;50.848;4.336;2023-06-01T13:59:49;6.82;;;4.25;;
20122;SDS011;10222;50.848;4.336;2023-06-01T14:02:15;8.70;;;4.60;;
20122;SDS011;10222;50.848;4.336;2023-06-01T14:04:41;9.60;;;4.40;;
20122;SDS011;10222;50.848;4.336;2023-06-01T14:07:08;9.98;;;4.10;;
20122;SDS011;10222;50.848;4.336;2023-06-01T14:09:34;10.25;;;4.30;;
20122;SDS011;10222;50.848;4.336;2023-06-01T14:12:00;8.60;;;4.15;;
20122;SDS011;10222;50.848;4.336;2023-06-01T14:14:26;6.80;;;3.72;;
20122;SDS011;10222;50.848;4.336;2023-06-01T14:16:53;7.53;;;3.67;;
20122;SDS011;10222;50.848;4.336;2023-06-01T14:19:19;11.15;;;3.45;;
20122;SDS011;10222;50.848;4.336;2023-06-01T14:21:46;5.18;;;3.22;;
20122;SDS011;10222;50.848;4.336;2023-06-01T14:24:12;6.43;;;3.05;;
20122;SDS011;10222;50.848;4.336;2023-06-01T14:26:39;7.05;;;2.72;;
20122;SDS011;10222;50.848;4.336;2023-06-01T14:29:05;6.13;;;3.40;;
20122;SDS011;10222;50.848;4.336;2023-06-01T14:31:31;5.68;;;3.08;;
20122;SDS011;10222;50.848;4.336;2023-06-01T14:33:57;6.78;;;3.03;;
20122;SDS011;10222;50.848;4.336;2023-06-01T14:36:24;7.53;;;3.13;;
20122;SDS011;10222;50.848;4.336;2023-06-01T14:38:51;7.60;;;2.97;;
20122;SDS011;10222;50.848;4.336;2023-06-01T14:41:17;6.60;;;3.30;;
20122;SDS011;10222;50.848;4.336;2023-06-01T14:43:43;5.65;;;2.97;;
20122;SDS011;10222;50.848;4.336;2023-06-01T14:46:09;7.88;;;3.35;;
20122;SDS011;10222;50.848;4.336;2023-06-01T14:48:35;5.30;;;3.08;;
20122;SDS011;10222;50.848;4.336;2023-06-01T14:51:02;6.25;;;3.50;;
20122;SDS011;10222;50.848;4.336;2023-06-01T14:53:29;6.30;;;3.00;;
20122;SDS011;10222;50.848;4.336;2023-06-01T14:55:56;7.40;;;3.67;;
20122;SDS011;10222;50.848;4.336;2023-06-01T14:58:22;6.38;;;3.45;;
20122;SDS011;10222;50.848;4.336;2023-06-01T15:00:48;6.57;;;3.28;;
20122;SDS011;10222;50.848;4.336;2023-06-01T15:03:14;5.10;;;2.70;;
20122;SDS011;10222;50.848;4.336;2023-06-01T15:05:41;5.07;;;3.13;;
20122;SDS011;10222;50.848;4.336;2023-06-01T15:08:07;5.47;;;3.67;;
20122;SDS011;10222;50.848;4.336;2023-06-01T15:10:34;5.88;;;3.20;;
20122;SDS011;10222;50.848;4.336;2023-06-01T15:13:00;6.65;;;3.35;;
20122;SDS011;10222;50.848;4.336;2023-06-01T15:15:26;4.63;;;3.10;;
20122;SDS011;10222;50.848;4.336;2023-06-01T15:17:52;5.68;;;3.30;;
20122;SDS011;10222;50.848;4.336;2023-06-01T15:20:21;4.97;;;3.40;;
20122;SDS011;10222;50.848;4.336;2023-06-01T15:22:47;7.43;;;3.20;;
20122;SDS011;10222;50.848;4.336;2023-06-01T15:25:13;7.85;;;3.00;;
20122;SDS011;10222;50.848;4.336;2023-06-01T15:27:39;5.10;;;2.95;;
20122;SDS011;10222;50.848;4.336;2023-06-01T15:30:05;5.70;;;3.42;;
20122;SDS011;10222;50.848;4.336;2023-06-01T15:32:31;6.13;;;3.80;;
20122;SDS011;10222;50.848;4.336;2023-06-01T15:35:04;5.88;;;4.28;;
20122;SDS011;10222;50.848;4.336;2023-06-01T15:37:30;13.05;;;4.68;;
20122;SDS011;10222;50.848;4.336;2023-06-01T15:39:56;6.03;;;3.75;;
20122;SDS011;10222;50.848;4.336;2023-06-01T15:42:22;7.38;;;4.57;;
20122;SDS011;10222;50.848;4.336;2023-06-01T15:44:48;11.52;;;4.15;;
20122;SDS011;10222;50.848;4.336;2023-06-01T15:47:14;6.80;;;4.15;;
20122;SDS011;10222;50.848;4.336;2023-06-01T15:49:41;6.65;;;4.10;;
20122;SDS011;10222;50.848;4.336;2023-06-01T15:52:07;6.03;;;3.47;;
20122;SDS011;10222;50.848;4.336;2023-06-01T15:54:35;6.78;;;4.07;;
20122;SDS011;10222;50.848;4.336;2023-06-01T15:57:01;7.38;;;4.38;;
20122;SDS011;10222;50.848;4.336;2023-06-01T15:59:30;5.47;;;3.95;;
20122;SDS011;10222;50.848;4.336;2023-06-01T16:01:56;5.50;;;3.60;;
20122;SDS011;10222;50.848;4.336;2023-06-01T16:04:22;8.07;;;3.50;;
20122;SDS011;10222;50.848;4.336;2023-06-01T16:06:48;8.93;;;4.93;;
20122;SDS011;10222;50.848;4.336;2023-06-01T16:09:14;6.55;;;4.28;;
20122;SDS011;10222;50.848;4.336;2023-06-01T16:11:40;11.20;;;4.63;;
20122;SDS011;10222;50.848;4.336;2023-06-01T16:14:06;12.73;;;7.25;;
20122;SDS011;10222;50.848;4.336;2023-06-01T16:16:32;6.20;;;3.20;;
20122;SDS011;10222;50.848;4.336;2023-06-01T16:19:00;5.43;;;3.58;;
20122;SDS011;10222;50.848;4.336;2023-06-01T16:21:26;7.10;;;4.00;;
20122;SDS011;10222;50.848;4.336;2023-06-01T16:23:52;11.07;;;4.10;;
20122;SDS011;10222;50.848;4.336;2023-06-01T16:26:19;7.75;;;4.20;;
20122;SDS011;10222;50.848;4.336;2023-06-01T16:28:45;11.13;;;5.68;;
20122;SDS011;10222;50.848;4.336;2023-06-01T16:31:14;6.88;;;3.20;;
20122;SDS011;10222;50.848;4.336;2023-06-01T16:33:40;7.93;;;4.40;;
20122;SDS011;10222;50.848;4.336;2023-06-01T16:36:06;8.68;;;3.70;;
20122;SDS011;10222;50.848;4.336;2023-06-01T16:38:33;5.88;;;3.13;;